sensor_id;sensor_type;location;lat;lon;timestamp;pressure;altitude;pressure_sealevel;temperature;humidity
61908;BME280;47864;52.526;19.672;2023-10-19T00:01:49;149518.34;;;2.00;100.00
61908;BME280;47864;52.526;19.672;2023-10-19T00:03:52;149489.50;;;1.88;100.00
61908;BME280;47864;52.526;19.672;2023-10-19T00:05:55;149397.84;;;1.51;100.00
61908;BME280;47864;52.526;19.672;2023-10-19T00:07:58;149372.72;;;1.41;100.00
61908;BME280;47864;52.526;19.672;2023-10-19T00:09:59;149374.00;;;1.41;100.00
61908;BME280;47864;52.526;19.672;2023-10-19T00:12:01;149348.94;;;1.31;100.00
61908;BME280;47864;52.526;19.672;2023-10-19T00:14:02;149389.09;;;1.47;100.00
61908;BME280;47864;52.526;19.672;2023-10-19T00:16:05;149381.53;;;1.44;100.00
61908;BME280;47864;52.526;19.672;2023-10-19T00:18:07;149405.38;;;1.54;100.00
61908;BME280;47864;52.526;19.672;2023-10-19T00:20:09;149394.06;;;1.49;100.00
61908;BME280;47864;52.526;19.672;2023-10-19T00:22:10;149409.16;;;1.56;100.00
61908;BME280;47864;52.526;19.672;2023-10-19T00:24:12;149415.41;;;1.58;100.00
61908;BME280;47864;52.526;19.672;2023-10-19T00:26:14;149459.34;;;1.76;100.00
61908;BME280;47864;52.526;19.672;2023-10-19T00:28:15;149436.75;;;1.67;100.00
61908;BME280;47864;52.526;19.672;2023-10-19T00:30:17;149471.94;;;1.81;100.00
61908;BME280;47864;52.526;19.672;2023-10-19T00:32:22;149463.13;;;1.77;100.00
61908;BME280;47864;52.526;19.672;2023-10-19T00:34:24;149497.00;;;1.91;100.00
61908;BME280;47864;52.526;19.672;2023-10-19T00:36:25;149483.19;;;1.85;100.00
61908;BME280;47864;52.526;19.672;2023-10-19T00:38:27;149530.94;;;2.05;100.00
61908;BME280;47864;52.526;19.672;2023-10-19T00:40:29;149509.59;;;1.96;100.00
61908;BME280;47864;52.526;19.672;2023-10-19T00:42:31;149545.97;;;2.11;100.00
61908;BME280;47864;52.526;19.672;2023-10-19T00:44:32;149554.75;;;2.14;100.00
61908;BME280;47864;52.526;19.672;2023-10-19T00:46:34;149548.50;;;2.12;100.00
61908;BME280;47864;52.526;19.672;2023-10-19T00:48:36;149583.63;;;2.26;100.00
61908;BME280;47864;52.526;19.672;2023-10-19T00:50:38;149576.09;;;2.23;100.00
61908;BME280;47864;52.526;19.672;2023-10-19T00:52:39;149581.13;;;2.25;100.00
61908;BME280;47864;52.526;19.672;2023-10-19T00:54:42;149576.09;;;2.23;100.00
61908;BME280;47864;52.526;19.672;2023-10-19T00:56:47;149525.88;;;2.03;100.00
61908;BME280;47864;52.526;19.672;2023-10-19T00:58:49;149564.81;;;2.18;100.00
61908;BME280;47864;52.526;19.672;2023-10-19T01:00:51;149582.38;;;2.25;100.00
61908;BME280;47864;52.526;19.672;2023-10-19T01:02:53;149605.00;;;2.35;100.00
61908;BME280;47864;52.526;19.672;2023-10-19T01:04:56;149606.25;;;2.35;100.00
61908;BME280;47864;52.526;19.672;2023-10-19T01:06:58;149553.53;;;2.14;100.00
61908;BME280;47864;52.526;19.672;2023-10-19T01:08:59;149587.41;;;2.27;100.00
61908;BME280;47864;52.526;19.672;2023-10-19T01:11:01;149566.06;;;2.19;100.00
61908;BME280;47864;52.526;19.672;2023-10-19T01:13:03;149588.69;;;2.28;100.00
61908;BME280;47864;52.526;19.672;2023-10-19T01:15:05;149615.06;;;2.39;100.00
61908;BME280;47864;52.526;19.672;2023-10-19T01:17:08;149587.41;;;2.27;100.00
61908;BME280;47864;52.526;19.672;2023-10-19T01:19:09;149593.72;;;2.30;100.00
61908;BME280;47864;52.526;19.672;2023-10-19T01:21:11;149586.16;;;2.27;100.00
61908;BME280;47864;52.526;19.672;2023-10-19T01:23:12;149579.88;;;2.24;100.00
61908;BME280;47864;52.526;19.672;2023-10-19T01:25:14;149572.38;;;2.21;100.00
61908;BME280;47864;52.526;19.672;2023-10-19T01:27:15;149563.56;;;2.18;100.00
61908;BME280;47864;52.526;19.672;2023-10-19T01:29:17;149545.97;;;2.11;100.00
61908;BME280;47864;52.526;19.672;2023-10-19T01:31:22;149500.78;;;1.92;100.00
61908;BME280;47864;52.526;19.672;2023-10-19T01:33:24;149502.03;;;1.93;100.00
61908;BME280;47864;52.526;19.672;2023-10-19T01:35:26;149478.16;;;1.83;100.00
61908;BME280;47864;52.526;19.672;2023-10-19T01:37:27;149488.22;;;1.87;100.00
61908;BME280;47864;52.526;19.672;2023-10-19T01:39:34;149483.19;;;1.85;100.00
61908;BME280;47864;52.526;19.672;2023-10-19T01:41:35;149441.78;;;1.69;100.00
61908;BME280;47864;52.526;19.672;2023-10-19T01:43:37;149428.00;;;1.63;100.00
61908;BME280;47864;52.526;19.672;2023-10-19T01:45:38;149453.06;;;1.73;100.00
61908;BME280;47864;52.526;19.672;2023-10-19T01:47:40;149453.06;;;1.73;100.00
61908;BME280;47864;52.526;19.672;2023-10-19T01:49:42;149434.22;;;1.66;100.00
61908;BME280;47864;52.526;19.672;2023-10-19T01:51:43;149438.00;;;1.67;100.00
61908;BME280;47864;52.526;19.672;2023-10-19T01:53:45;149402.88;;;1.53;100.00
61908;BME280;47864;52.526;19.672;2023-10-19T01:55:46;149445.56;;;1.70;100.00
61908;BME280;47864;52.526;19.672;2023-10-19T01:57:48;149420.44;;;1.60;100.00
61908;BME280;47864;52.526;19.672;2023-10-19T01:59:49;149425.47;;;1.62;100.00
61908;BME280;47864;52.526;19.672;2023-10-19T02:01:51;149390.34;;;1.48;100.00
61908;BME280;47864;52.526;19.672;2023-10-19T02:04:01;149425.47;;;1.62;100.00
61908;BME280;47864;52.526;19.672;2023-10-19T02:06:03;149420.44;;;1.60;100.00
61908;BME280;47864;52.526;19.672;2023-10-19T02:08:06;149426.72;;;1.63;100.00
61908;BME280;47864;52.526;19.672;2023-10-19T02:10:08;149402.88;;;1.53;100.00
61908;BME280;47864;52.526;19.672;2023-10-19T02:12:09;149390.34;;;1.48;100.00
61908;BME280;47864;52.526;19.672;2023-10-19T02:14:11;149405.38;;;1.54;100.00
61908;BME280;47864;52.526;19.672;2023-10-19T02:16:14;149412.88;;;1.57;100.00
61908;BME280;47864;52.526;19.672;2023-10-19T02:18:15;149425.47;;;1.62;100.00
61908;BME280;47864;52.526;19.672;2023-10-19T02:20:17;149426.72;;;1.63;100.00
61908;BME280;47864;52.526;19.672;2023-10-19T02:22:38;149414.16;;;1.58;100.00
61908;BME280;47864;52.526;19.672;2023-10-19T02:24:39;149386.56;;;1.46;100.00
61908;BME280;47864;52.526;19.672;2023-10-19T02:26:42;149412.88;;;1.57;100.00
61908;BME280;47864;52.526;19.672;2023-10-19T02:28:44;149420.44;;;1.60;100.00
61908;BME280;47864;52.526;19.672;2023-10-19T02:30:46;149430.50;;;1.64;100.00
61908;BME280;47864;52.526;19.672;2023-10-19T02:32:47;149453.06;;;1.73;100.00
61908;BME280;47864;52.526;19.672;2023-10-19T02:34:49;149435.50;;;1.66;100.00
61908;BME280;47864;52.526;19.672;2023-10-19T02:36:50;149431.75;;;1.65;100.00
61908;BME280;47864;52.526;19.672;2023-10-19T02:38:52;149448.06;;;1.71;100.00
61908;BME280;47864;52.526;19.672;2023-10-19T02:40:53;149450.59;;;1.72;100.00
61908;BME280;47864;52.526;19.672;2023-10-19T02:42:55;149422.97;;;1.61;100.00
61908;BME280;47864;52.526;19.672;2023-10-19T02:44:57;149392.81;;;1.49;100.00
61908;BME280;47864;52.526;19.672;2023-10-19T02:46:58;149394.06;;;1.49;100.00
61908;BME280;47864;52.526;19.672;2023-10-19T02:49:02;149409.16;;;1.56;100.00
61908;BME280;47864;52.526;19.672;2023-10-19T02:51:04;149402.88;;;1.53;100.00
61908;BME280;47864;52.526;19.672;2023-10-19T02:53:05;149431.75;;;1.65;100.00
61908;BME280;47864;52.526;19.672;2023-10-19T02:55:07;149369.00;;;1.39;100.00
61908;BME280;47864;52.526;19.672;2023-10-19T02:57:09;149444.28;;;1.70;100.00
61908;BME280;47864;52.526;19.672;2023-10-19T02:59:10;149463.13;;;1.77;100.00
61908;BME280;47864;52.526;19.672;2023-10-19T03:01:17;149466.91;;;1.79;100.00
61908;BME280;47864;52.526;19.672;2023-10-19T03:03:18;149471.94;;;1.81;100.00
61908;BME280;47864;52.526;19.672;2023-10-19T03:05:20;149446.81;;;1.71;100.00
61908;BME280;47864;52.526;19.672;2023-10-19T03:07:23;149469.41;;;1.80;100.00
61908;BME280;47864;52.526;19.672;2023-10-19T03:09:25;149479.44;;;1.84;100.00
61908;BME280;47864;52.526;19.672;2023-10-19T03:11:27;149479.44;;;1.84;100.00
61908;BME280;47864;52.526;19.672;2023-10-19T03:13:29;149460.59;;;1.76;100.00
61908;BME280;47864;52.526;19.672;2023-10-19T03:15:30;149485.72;;;1.86;100.00
61908;BME280;47864;52.526;19.672;2023-10-19T03:17:32;149458.09;;;1.75;100.00
61908;BME280;47864;52.526;19.672;2023-10-19T03:19:34;149445.56;;;1.70;100.00
61908;BME280;47864;52.526;19.672;2023-10-19T03:21:35;149463.13;;;1.77;100.00
61908;BME280;47864;52.526;19.672;2023-10-19T03:23:37;149483.19;;;1.85;100.00
61908;BME280;47864;52.526;19.672;2023-10-19T03:25:39;149492.00;;;1.89;100.00
61908;BME280;47864;52.526;19.672;2023-10-19T03:27:41;149465.63;;;1.78;100.00
61908;BME280;47864;52.526;19.672;2023-10-19T03:29:44;149465.63;;;1.78;100.00
61908;BME280;47864;52.526;19.672;2023-10-19T03:31:45;149449.34;;;1.72;100.00
61908;BME280;47864;52.526;19.672;2023-10-19T03:33:47;149435.50;;;1.66;100.00
61908;BME280;47864;52.526;19.672;2023-10-19T03:35:49;149436.75;;;1.67;100.00
61908;BME280;47864;52.526;19.672;2023-10-19T03:37:50;149449.34;;;1.72;100.00
61908;BME280;47864;52.526;19.672;2023-10-19T03:39:52;149448.06;;;1.71;100.00
61908;BME280;47864;52.526;19.672;2023-10-19T03:41:53;149425.47;;;1.62;100.00
61908;BME280;47864;52.526;19.672;2023-10-19T03:43:55;149407.91;;;1.55;100.00
61908;BME280;47864;52.526;19.672;2023-10-19T03:45:56;149402.88;;;1.53;100.00
61908;BME280;47864;52.526;19.672;2023-10-19T03:47:58;149397.84;;;1.51;100.00
61908;BME280;47864;52.526;19.672;2023-10-19T03:50:03;149404.13;;;1.53;100.00
61908;BME280;47864;52.526;19.672;2023-10-19T03:52:06;149375.25;;;1.42;100.00
61908;BME280;47864;52.526;19.672;2023-10-19T03:54:07;149410.44;;;1.56;100.00
61908;BME280;47864;52.526;19.672;2023-10-19T03:56:09;149387.81;;;1.47;100.00
61908;BME280;47864;52.526;19.672;2023-10-19T03:58:11;149428.00;;;1.63;100.00
61908;BME280;47864;52.526;19.672;2023-10-19T04:00:12;149404.13;;;1.53;100.00
61908;BME280;47864;52.526;19.672;2023-10-19T04:02:14;149376.50;;;1.42;100.00
61908;BME280;47864;52.526;19.672;2023-10-19T04:04:16;149381.53;;;1.44;100.00
61908;BME280;47864;52.526;19.672;2023-10-19T04:06:18;149352.66;;;1.33;100.00
61908;BME280;47864;52.526;19.672;2023-10-19T04:08:19;149357.69;;;1.35;100.00
61908;BME280;47864;52.526;19.672;2023-10-19T04:10:21;149273.63;;;1.01;100.00
61908;BME280;47864;52.526;19.672;2023-10-19T04:12:26;149247.31;;;0.90;100.00
61908;BME280;47864;52.526;19.672;2023-10-19T04:14:28;149268.66;;;0.99;100.00
61908;BME280;47864;52.526;19.672;2023-10-19T04:16:30;149312.50;;;1.17;100.00
61908;BME280;47864;52.526;19.672;2023-10-19T04:18:32;149346.41;;;1.30;100.00
61908;BME280;47864;52.526;19.672;2023-10-19T04:20:33;149337.63;;;1.27;100.00
61908;BME280;47864;52.526;19.672;2023-10-19T04:22:35;149338.88;;;1.27;100.00
61908;BME280;47864;52.526;19.672;2023-10-19T04:24:36;149375.25;;;1.42;100.00
61908;BME280;47864;52.526;19.672;2023-10-19T04:26:38;149360.22;;;1.36;100.00
61908;BME280;47864;52.526;19.672;2023-10-19T04:28:41;149365.22;;;1.38;100.00
61908;BME280;47864;52.526;19.672;2023-10-19T04:30:42;149394.06;;;1.49;100.00
61908;BME280;47864;52.526;19.672;2023-10-19T04:32:45;149371.47;;;1.40;100.00
61908;BME280;47864;52.526;19.672;2023-10-19T04:34:47;149396.59;;;1.50;100.00
61908;BME280;47864;52.526;19.672;2023-10-19T04:36:48;149372.72;;;1.41;100.00
61908;BME280;47864;52.526;19.672;2023-10-19T04:38:50;149391.56;;;1.48;100.00
61908;BME280;47864;52.526;19.672;2023-10-19T04:40:52;149377.75;;;1.43;100.00
61908;BME280;47864;52.526;19.672;2023-10-19T04:42:54;149391.56;;;1.48;100.00
61908;BME280;47864;52.526;19.672;2023-10-19T04:44:55;149389.09;;;1.47;100.00
61908;BME280;47864;52.526;19.672;2023-10-19T04:46:57;149391.56;;;1.48;100.00
61908;BME280;47864;52.526;19.672;2023-10-19T04:48:59;149412.88;;;1.57;100.00
61908;BME280;47864;52.526;19.672;2023-10-19T04:51:00;149407.91;;;1.55;100.00
61908;BME280;47864;52.526;19.672;2023-10-19T04:53:02;149384.06;;;1.45;100.00
61908;BME280;47864;52.526;19.672;2023-10-19T04:55:04;149424.22;;;1.62;100.00
61908;BME280;47864;52.526;19.672;2023-10-19T04:57:05;149431.75;;;1.65;100.00
61908;BME280;47864;52.526;19.672;2023-10-19T04:59:07;149454.31;;;1.74;100.00
61908;BME280;47864;52.526;19.672;2023-10-19T05:01:08;149417.94;;;1.59;100.00
61908;BME280;47864;52.526;19.672;2023-10-19T05:03:10;149475.66;;;1.82;100.00
61908;BME280;47864;52.526;19.672;2023-10-19T05:05:11;149547.25;;;2.11;100.00
61908;BME280;47864;52.526;19.672;2023-10-19T05:07:13;149559.78;;;2.16;100.00
61908;BME280;47864;52.526;19.672;2023-10-19T05:09:14;149533.44;;;2.06;100.00
61908;BME280;47864;52.526;19.672;2023-10-19T05:11:17;149528.41;;;2.04;100.00
61908;BME280;47864;52.526;19.672;2023-10-19T05:13:18;149567.31;;;2.19;100.00
61908;BME280;47864;52.526;19.672;2023-10-19T05:15:20;149545.97;;;2.11;100.00
61908;BME280;47864;52.526;19.672;2023-10-19T05:17:22;149512.09;;;1.97;100.00
61908;BME280;47864;52.526;19.672;2023-10-19T05:19:23;149515.81;;;1.99;100.00
61908;BME280;47864;52.526;19.672;2023-10-19T05:21:25;149552.28;;;2.13;100.00
61908;BME280;47864;52.526;19.672;2023-10-19T05:23:27;149576.09;;;2.23;100.00
61908;BME280;47864;52.526;19.672;2023-10-19T05:25:29;149596.19;;;2.31;100.00
61908;BME280;47864;52.526;19.672;2023-10-19T05:27:30;149587.41;;;2.27;100.00
61908;BME280;47864;52.526;19.672;2023-10-19T05:29:32;149582.38;;;2.25;100.00
61908;BME280;47864;52.526;19.672;2023-10-19T05:31:34;149556.00;;;2.15;100.00
61908;BME280;47864;52.526;19.672;2023-10-19T05:33:35;149584.91;;;2.26;100.00
61908;BME280;47864;52.526;19.672;2023-10-19T05:35:37;149577.34;;;2.23;100.00
61908;BME280;47864;52.526;19.672;2023-10-19T05:37:39;149588.69;;;2.28;100.00
61908;BME280;47864;52.526;19.672;2023-10-19T05:39:40;149622.56;;;2.42;100.00
61908;BME280;47864;52.526;19.672;2023-10-19T05:41:42;149628.88;;;2.44;100.00
61908;BME280;47864;52.526;19.672;2023-10-19T05:43:44;149636.38;;;2.47;100.00
61908;BME280;47864;52.526;19.672;2023-10-19T05:45:45;149637.63;;;2.48;100.00
61908;BME280;47864;52.526;19.672;2023-10-19T05:47:47;149608.78;;;2.36;100.00
61908;BME280;47864;52.526;19.672;2023-10-19T05:49:48;149651.47;;;2.53;100.00
61908;BME280;47864;52.526;19.672;2023-10-19T05:51:50;149656.47;;;2.55;100.00
61908;BME280;47864;52.526;19.672;2023-10-19T05:53:52;149692.94;;;2.70;100.00
61908;BME280;47864;52.526;19.672;2023-10-19T05:55:53;149684.13;;;2.66;100.00
61908;BME280;47864;52.526;19.672;2023-10-19T05:57:55;149709.25;;;2.77;100.00
61908;BME280;47864;52.526;19.672;2023-10-19T05:59:57;149708.00;;;2.76;100.00
61908;BME280;47864;52.526;19.672;2023-10-19T06:01:58;149777.13;;;3.04;100.00
61908;BME280;47864;52.526;19.672;2023-10-19T06:04:00;149780.84;;;3.05;100.00
61908;BME280;47864;52.526;19.672;2023-10-19T06:06:02;149855.03;;;3.35;100.00
61908;BME280;47864;52.526;19.672;2023-10-19T06:08:03;149873.88;;;3.43;100.00
61908;BME280;47864;52.526;19.672;2023-10-19T06:10:05;149867.56;;;3.40;100.00
61908;BME280;47864;52.526;19.672;2023-10-19T06:12:09;149848.72;;;3.33;100.00
61908;BME280;47864;52.526;19.672;2023-10-19T06:14:11;149872.63;;;3.42;100.00
61908;BME280;47864;52.526;19.672;2023-10-19T06:16:13;149911.56;;;3.58;100.00
61908;BME280;47864;52.526;19.672;2023-10-19T06:18:16;149901.50;;;3.54;100.00
61908;BME280;47864;52.526;19.672;2023-10-19T06:20:18;149916.63;;;3.60;100.00
61908;BME280;47864;52.526;19.672;2023-10-19T06:22:19;149955.59;;;3.76;100.00
61908;BME280;47864;52.526;19.672;2023-10-19T06:24:22;149956.84;;;3.76;100.00
61908;BME280;47864;52.526;19.672;2023-10-19T06:26:24;149965.63;;;3.80;100.00
61908;BME280;47864;52.526;19.672;2023-10-19T06:28:25;149931.69;;;3.66;100.00
61908;BME280;47864;52.526;19.672;2023-10-19T06:30:27;149958.09;;;3.77;100.00
61908;BME280;47864;52.526;19.672;2023-10-19T06:32:29;149979.47;;;3.86;100.00
61908;BME280;47864;52.526;19.672;2023-10-19T06:34:32;150000.88;;;3.94;100.00
61908;BME280;47864;52.526;19.672;2023-10-19T06:36:35;149968.13;;;3.81;100.00
61908;BME280;47864;52.526;19.672;2023-10-19T06:38:36;149978.22;;;3.85;100.00
61908;BME280;47864;52.526;19.672;2023-10-19T06:40:38;150042.38;;;4.11;100.00
61908;BME280;47864;52.526;19.672;2023-10-19T06:42:40;150110.25;;;4.38;100.00
61908;BME280;47864;52.526;19.672;2023-10-19T06:44:41;150137.94;;;4.49;100.00
61908;BME280;47864;52.526;19.672;2023-10-19T06:46:43;150169.38;;;4.62;100.00
61908;BME280;47864;52.526;19.672;2023-10-19T06:48:45;150158.06;;;4.57;100.00
61908;BME280;47864;52.526;19.672;2023-10-19T06:50:46;150156.81;;;4.57;100.00
61908;BME280;47864;52.526;19.672;2023-10-19T06:52:52;150229.78;;;4.86;100.00
61908;BME280;47864;52.526;19.672;2023-10-19T06:54:54;150258.75;;;4.98;100.00
61908;BME280;47864;52.526;19.672;2023-10-19T06:56:56;150324.19;;;5.24;100.00
61908;BME280;47864;52.526;19.672;2023-10-19T06:58:57;150331.72;;;5.27;100.00
61908;BME280;47864;52.526;19.672;2023-10-19T07:00:59;150248.69;;;4.94;100.00
61908;BME280;47864;52.526;19.672;2023-10-19T07:03:00;150273.84;;;5.04;100.00
61908;BME280;47864;52.526;19.672;2023-10-19T07:05:02;150309.09;;;5.18;100.00
61908;BME280;47864;52.526;19.672;2023-10-19T07:07:04;150380.84;;;5.47;100.00
61908;BME280;47864;52.526;19.672;2023-10-19T07:09:05;150406.03;;;5.57;100.00
61908;BME280;47864;52.526;19.672;2023-10-19T07:11:07;150363.22;;;5.40;100.00
61908;BME280;47864;52.526;19.672;2023-10-19T07:13:09;150325.47;;;5.25;100.00
61908;BME280;47864;52.526;19.672;2023-10-19T07:15:11;150350.66;;;5.35;100.00
61908;BME280;47864;52.526;19.672;2023-10-19T07:17:12;150382.09;;;5.48;100.00
61908;BME280;47864;52.526;19.672;2023-10-19T07:19:14;150390.94;;;5.51;100.00
61908;BME280;47864;52.526;19.672;2023-10-19T07:21:16;150361.97;;;5.40;100.00
61908;BME280;47864;52.526;19.672;2023-10-19T07:23:17;150456.38;;;5.78;100.00
61908;BME280;47864;52.526;19.672;2023-10-19T07:25:20;150490.47;;;5.91;100.00
61908;BME280;47864;52.526;19.672;2023-10-19T07:27:21;150480.31;;;5.87;100.00
61908;BME280;47864;52.526;19.672;2023-10-19T07:29:37;150428.69;;;5.66;100.00
61908;BME280;47864;52.526;19.672;2023-10-19T07:31:39;150479.06;;;5.87;100.00
61908;BME280;47864;52.526;19.672;2023-10-19T07:33:41;150484.16;;;5.89;100.00
61908;BME280;47864;52.526;19.672;2023-10-19T07:35:43;150511.88;;;6.00;100.00
61908;BME280;47864;52.526;19.672;2023-10-19T07:37:45;150509.34;;;5.99;100.00
61908;BME280;47864;52.526;19.672;2023-10-19T07:39:47;150539.56;;;6.11;100.00
61908;BME280;47864;52.526;19.672;2023-10-19T07:41:49;150642.88;;;6.53;100.00
61908;BME280;47864;52.526;19.672;2023-10-19T07:43:51;150705.88;;;6.78;100.00
61908;BME280;47864;52.526;19.672;2023-10-19T07:45:52;150710.94;;;6.80;100.00
61908;BME280;47864;52.526;19.672;2023-10-19T07:47:54;150716.00;;;6.82;100.00
61908;BME280;47864;52.526;19.672;2023-10-19T07:49:57;150673.13;;;6.65;100.00
61908;BME280;47864;52.526;19.672;2023-10-19T07:51:58;150726.06;;;6.86;100.00
61908;BME280;47864;52.526;19.672;2023-10-19T07:54:00;150758.84;;;6.99;100.00
61908;BME280;47864;52.526;19.672;2023-10-19T07:56:01;150741.16;;;6.92;100.00
61908;BME280;47864;52.526;19.672;2023-10-19T07:58:03;150789.06;;;7.11;100.00
61908;BME280;47864;52.526;19.672;2023-10-19T08:00:05;150842.06;;;7.33;100.00
61908;BME280;47864;52.526;19.672;2023-10-19T08:02:07;150905.06;;;7.58;100.00
61908;BME280;47864;52.526;19.672;2023-10-19T08:04:09;150927.78;;;7.67;100.00
61908;BME280;47864;52.526;19.672;2023-10-19T08:06:10;150941.69;;;7.73;100.00
61908;BME280;47864;52.526;19.672;2023-10-19T08:08:12;150976.97;;;7.87;100.00
61908;BME280;47864;52.526;19.672;2023-10-19T08:10:19;151000.97;;;7.96;100.00
61908;BME280;47864;52.526;19.672;2023-10-19T08:12:20;151081.72;;;8.29;100.00
61908;BME280;47864;52.526;19.672;2023-10-19T08:14:22;151077.91;;;8.27;100.00
61908;BME280;47864;52.526;19.672;2023-10-19T08:16:24;151157.47;;;8.59;100.00
61908;BME280;47864;52.526;19.672;2023-10-19T08:18:25;151218.03;;;8.84;100.00
61908;BME280;47864;52.526;19.672;2023-10-19T08:20:27;151148.66;;;8.56;100.00
61908;BME280;47864;52.526;19.672;2023-10-19T08:22:29;151134.72;;;8.50;100.00
61908;BME280;47864;52.526;19.672;2023-10-19T08:24:30;151191.53;;;8.73;100.00
61908;BME280;47864;52.526;19.672;2023-10-19T08:26:32;151224.38;;;8.86;100.00
61908;BME280;47864;52.526;19.672;2023-10-19T08:28:34;151156.19;;;8.59;100.00
61908;BME280;47864;52.526;19.672;2023-10-19T08:30:35;151139.78;;;8.52;100.00
61908;BME280;47864;52.526;19.672;2023-10-19T08:32:37;151133.47;;;8.50;100.00
61908;BME280;47864;52.526;19.672;2023-10-19T08:34:39;151190.31;;;8.72;100.00
61908;BME280;47864;52.526;19.672;2023-10-19T08:36:40;151162.53;;;8.61;100.00
61908;BME280;47864;52.526;19.672;2023-10-19T08:38:42;151260.97;;;9.01;100.00
61908;BME280;47864;52.526;19.672;2023-10-19T08:40:44;151233.19;;;8.90;100.00
61908;BME280;47864;52.526;19.672;2023-10-19T08:42:46;151311.50;;;9.21;96.67
61908;BME280;47864;52.526;19.672;2023-10-19T08:44:47;151249.63;;;8.96;99.20
61908;BME280;47864;52.526;19.672;2023-10-19T08:46:49;151273.56;;;9.06;99.41
61908;BME280;47864;52.526;19.672;2023-10-19T08:48:54;151307.69;;;9.20;97.80
61908;BME280;47864;52.526;19.672;2023-10-19T08:50:56;151310.22;;;9.21;98.35
61908;BME280;47864;52.526;19.672;2023-10-19T08:52:59;151305.16;;;9.19;96.71
61908;BME280;47864;52.526;19.672;2023-10-19T08:55:01;151296.31;;;9.15;94.95
61908;BME280;47864;52.526;19.672;2023-10-19T08:57:03;151354.44;;;9.38;94.66
61908;BME280;47864;52.526;19.672;2023-10-19T08:59:05;151406.19;;;9.59;92.50
61908;BME280;47864;52.526;19.672;2023-10-19T09:01:07;151397.34;;;9.55;92.78
61908;BME280;47864;52.526;19.672;2023-10-19T09:03:08;151447.88;;;9.76;90.59
61908;BME280;47864;52.526;19.672;2023-10-19T09:05:10;151406.19;;;9.59;90.02
61908;BME280;47864;52.526;19.672;2023-10-19T09:07:12;151432.72;;;9.70;89.47
61908;BME280;47864;52.526;19.672;2023-10-19T09:09:14;151307.69;;;9.20;91.24
61908;BME280;47864;52.526;19.672;2023-10-19T09:11:15;151335.44;;;9.31;90.80
61908;BME280;47864;52.526;19.672;2023-10-19T09:13:17;151377.13;;;9.47;91.10
61908;BME280;47864;52.526;19.672;2023-10-19T09:15:22;151283.69;;;9.10;90.75
61908;BME280;47864;52.526;19.672;2023-10-19T09:17:30;151368.31;;;9.44;91.23
61908;BME280;47864;52.526;19.672;2023-10-19T09:19:45;151398.59;;;9.56;90.94
61908;BME280;47864;52.526;19.672;2023-10-19T09:21:47;151458.00;;;9.80;89.48
61908;BME280;47864;52.526;19.672;2023-10-19T09:23:49;151495.91;;;9.95;88.95
61908;BME280;47864;52.526;19.672;2023-10-19T09:25:51;151427.66;;;9.68;87.74
61908;BME280;47864;52.526;19.672;2023-10-19T09:27:53;151484.50;;;9.90;88.76
61908;BME280;47864;52.526;19.672;2023-10-19T09:29:55;151492.09;;;9.93;87.58
61908;BME280;47864;52.526;19.672;2023-10-19T09:31:58;151532.53;;;10.10;86.98
61908;BME280;47864;52.526;19.672;2023-10-19T09:34:00;151559.13;;;10.20;86.69
61908;BME280;47864;52.526;19.672;2023-10-19T09:36:03;151609.66;;;10.41;85.17
61908;BME280;47864;52.526;19.672;2023-10-19T09:38:05;151557.88;;;10.20;84.13
61908;BME280;47864;52.526;19.672;2023-10-19T09:40:07;151578.09;;;10.28;85.17
61908;BME280;47864;52.526;19.672;2023-10-19T09:42:10;151594.50;;;10.35;84.81
61908;BME280;47864;52.526;19.672;2023-10-19T09:44:11;151600.84;;;10.37;84.30
61908;BME280;47864;52.526;19.672;2023-10-19T09:46:25;151638.75;;;10.52;82.52
61908;BME280;47864;52.526;19.672;2023-10-19T09:48:28;151564.16;;;10.22;83.35
61908;BME280;47864;52.526;19.672;2023-10-19T09:50:30;151533.81;;;10.10;84.46
61908;BME280;47864;52.526;19.672;2023-10-19T09:52:33;151541.34;;;10.13;83.69
61908;BME280;47864;52.526;19.672;2023-10-19T09:54:49;151645.03;;;10.55;82.72
61908;BME280;47864;52.526;19.672;2023-10-19T09:57:02;151725.94;;;10.87;82.44
61908;BME280;47864;52.526;19.672;2023-10-19T09:59:22;151725.94;;;10.87;80.85
61908;BME280;47864;52.526;19.672;2023-10-19T10:01:25;151777.81;;;11.08;79.65
61908;BME280;47864;52.526;19.672;2023-10-19T10:03:45;151776.53;;;11.07;77.49
61908;BME280;47864;52.526;19.672;2023-10-19T10:05:47;151761.38;;;11.01;79.96
61908;BME280;47864;52.526;19.672;2023-10-19T10:10:21;151666.53;;;10.63;80.58
61908;BME280;47864;52.526;19.672;2023-10-19T10:12:24;151732.28;;;10.90;81.00
61908;BME280;47864;52.526;19.672;2023-10-19T10:14:26;151776.53;;;11.07;79.57
61908;BME280;47864;52.526;19.672;2023-10-19T10:16:33;151749.97;;;10.97;80.97
61908;BME280;47864;52.526;19.672;2023-10-19T10:18:35;151696.88;;;10.76;80.50
61908;BME280;47864;52.526;19.672;2023-10-19T10:20:37;151671.59;;;10.65;80.26
61908;BME280;47864;52.526;19.672;2023-10-19T10:22:38;151642.56;;;10.54;80.87
61908;BME280;47864;52.526;19.672;2023-10-19T10:24:41;151693.09;;;10.74;81.62
61908;BME280;47864;52.526;19.672;2023-10-19T10:26:58;151691.81;;;10.74;80.52
61908;BME280;47864;52.526;19.672;2023-10-19T10:29:14;151719.66;;;10.85;80.63
61908;BME280;47864;52.526;19.672;2023-10-19T10:31:20;151699.41;;;10.77;81.58
61908;BME280;47864;52.526;19.672;2023-10-19T10:33:38;151728.47;;;10.88;80.73
61908;BME280;47864;52.526;19.672;2023-10-19T10:37:53;151650.09;;;10.57;81.17